createdAt,value
2018-12-21T00:01:53.325Z,100911.89
2018-12-21T00:04:21.046Z,100912.30
2018-12-21T00:06:48.649Z,100912.30
2018-12-21T00:09:16.332Z,100906.17
2018-12-21T00:11:43.937Z,100909.09
2018-12-21T00:14:11.630Z,100904.66
2018-12-21T00:16:39.453Z,100902.94
2018-12-21T00:19:07.069Z,100902.00
2018-12-21T00:21:34.742Z,100899.29
2018-12-21T00:24:02.404Z,100894.45
2018-12-21T00:26:30.051Z,100887.02
2018-12-21T00:28:57.665Z,100889.70
2018-12-21T00:31:30.790Z,100889.70
2018-12-21T00:34:04.111Z,100893.63
2018-12-21T00:36:37.398Z,100889.61
2018-12-21T00:39:12.371Z,100887.55
2018-12-21T00:45:23.156Z,100884.02
2018-12-21T00:47:50.875Z,100890.00
2018-12-21T00:50:18.569Z,100894.75
2018-12-21T00:52:46.213Z,100900.84
2018-12-21T00:55:13.795Z,100898.63
2018-12-21T00:57:41.410Z,100898.19
2018-12-21T01:00:10.660Z,100895.47
2018-12-21T01:02:38.386Z,100903.34
2018-12-21T01:05:06.082Z,100902.47
2018-12-21T01:07:33.700Z,100892.84
2018-12-21T01:10:01.428Z,100885.88
2018-12-21T01:12:29.099Z,100885.00
2018-12-21T01:14:56.725Z,100880.59
2018-12-21T01:17:24.401Z,100878.94
2018-12-21T01:19:52.076Z,100873.48
2018-12-21T01:22:19.644Z,100866.11
2018-12-21T01:24:47.369Z,100869.64
2018-12-21T01:27:14.967Z,100871.45
2018-12-21T01:29:42.662Z,100867.15
2018-12-21T01:32:10.321Z,100866.84
2018-12-21T01:34:38.015Z,100868.96
2018-12-21T01:37:05.651Z,100874.14
2018-12-21T01:39:33.244Z,100880.64
2018-12-21T01:42:00.942Z,100877.55
2018-12-21T01:44:28.668Z,100875.86
2018-12-21T01:46:56.324Z,100869.34
2018-12-21T01:49:23.960Z,100861.94
2018-12-21T01:51:51.560Z,100864.59
2018-12-21T01:54:19.264Z,100866.81
2018-12-21T01:56:47.383Z,100863.71
2018-12-21T01:59:15.082Z,100857.63
2018-12-21T02:01:42.876Z,100859.28
2018-12-21T02:04:10.602Z,100851.31
2018-12-21T02:06:38.236Z,100849.56
2018-12-21T02:09:07.167Z,100843.00
2018-12-21T02:11:34.881Z,100839.97
2018-12-21T02:14:02.523Z,100836.50
2018-12-21T02:16:30.181Z,100835.66
2018-12-21T02:18:57.799Z,100838.76
2018-12-21T02:21:25.423Z,100832.63
2018-12-21T02:23:53.065Z,100826.02
2018-12-21T02:26:20.736Z,100825.17
2018-12-21T02:28:48.327Z,100821.23
2018-12-21T02:31:15.953Z,100825.10
2018-12-21T02:33:43.588Z,100818.98
2018-12-21T02:36:11.199Z,100816.29
2018-12-21T02:38:38.780Z,100811.92
2018-12-21T02:41:06.379Z,100809.30
2018-12-21T02:43:34.169Z,100808.35
2018-12-21T02:46:01.914Z,100798.56
2018-12-21T02:48:29.528Z,100793.24
2018-12-21T02:50:57.147Z,100789.31
2018-12-21T02:53:24.825Z,100795.83
2018-12-21T02:55:52.607Z,100785.33
2018-12-21T02:58:20.228Z,100786.07
2018-12-21T03:00:47.792Z,100785.20
2018-12-21T03:03:15.465Z,100785.20
2018-12-21T03:05:43.101Z,100783.52
2018-12-21T03:08:10.731Z,100777.36
2018-12-21T03:10:38.649Z,100771.81
2018-12-21T03:13:06.292Z,100766.67
2018-12-21T03:15:33.901Z,100774.58
2018-12-21T03:18:01.532Z,100768.22
2018-12-21T03:20:29.161Z,100769.16
2018-12-21T03:22:56.812Z,100767.95
2018-12-21T03:25:24.512Z,100763.62
2018-12-21T03:27:52.409Z,100760.55
2018-12-21T03:30:20.042Z,100749.69
2018-12-21T03:32:47.639Z,100751.91
2018-12-21T03:35:15.259Z,100754.09
2018-12-21T03:37:43.227Z,100754.97
2018-12-21T03:40:17.532Z,100749.59
2018-12-21T03:42:45.156Z,100746.13
2018-12-21T03:45:12.750Z,100740.91
2018-12-21T03:47:40.401Z,100737.88
2018-12-21T03:50:08.041Z,100729.14
2018-12-21T03:52:35.691Z,100725.24
2018-12-21T03:55:03.312Z,100725.75
2018-12-21T03:57:30.979Z,100723.49
2018-12-21T03:59:58.709Z,100715.88
2018-12-21T04:02:26.276Z,100712.42
2018-12-21T04:04:53.876Z,100704.95
2018-12-21T04:07:21.471Z,100710.64
2018-12-21T04:09:49.063Z,100710.64
2018-12-21T04:12:16.708Z,100703.67
2018-12-21T04:14:44.255Z,100704.98
2018-12-21T04:17:11.837Z,100704.59
2018-12-21T04:19:39.524Z,100696.75
2018-12-21T04:22:07.164Z,100698.20
2018-12-21T04:24:34.748Z,100691.64
2018-12-21T04:27:02.473Z,100685.56
2018-12-21T04:29:30.080Z,100686.06
2018-12-21T04:31:57.738Z,100685.09
2018-12-21T04:34:25.344Z,100675.00
2018-12-21T04:36:52.947Z,100677.22
2018-12-21T04:39:20.669Z,100668.91
2018-12-21T04:41:48.315Z,100664.10
2018-12-21T04:44:16.099Z,100661.48
2018-12-21T04:46:43.840Z,100660.20
2018-12-21T04:49:11.437Z,100664.88
2018-12-21T04:51:39.658Z,100656.56
2018-12-21T04:54:07.266Z,100654.37
2018-12-21T04:56:34.910Z,100657.44
2018-12-21T04:59:02.509Z,100658.31
2018-12-21T05:01:30.131Z,100654.81
2018-12-21T05:03:57.859Z,100647.37
2018-12-21T05:06:25.499Z,100646.87
2018-12-21T05:08:53.143Z,100641.19
2018-12-21T05:11:20.886Z,100638.93
2018-12-21T05:13:48.480Z,100643.27
2018-12-21T05:16:16.025Z,100632.37
2018-12-21T05:18:43.772Z,100623.22
2018-12-21T05:21:11.342Z,100624.06
2018-12-21T05:23:38.912Z,100619.61
2018-12-21T05:26:06.555Z,100620.89
2018-12-21T05:28:34.154Z,100616.08
2018-12-21T05:31:01.720Z,100611.64
2018-12-21T05:33:29.554Z,100603.73
2018-12-21T05:35:57.159Z,100601.97
2018-12-21T05:38:24.748Z,100597.16
2018-12-21T05:40:52.366Z,100598.52
2018-12-21T05:43:20.071Z,100593.16
2018-12-21T05:45:47.639Z,100595.78
2018-12-21T05:48:15.352Z,100588.49
2018-12-21T05:50:42.935Z,100578.04
2018-12-21T05:53:10.625Z,100574.97
2018-12-21T05:55:38.255Z,100571.04
2018-12-21T05:58:05.803Z,100565.36
2018-12-21T06:00:33.479Z,100568.05
2018-12-21T06:03:01.042Z,100560.11
2018-12-21T06:05:28.744Z,100558.87
2018-12-21T06:07:56.581Z,100555.37
2018-12-21T06:10:24.190Z,100554.10
2018-12-21T06:12:51.763Z,100548.30
2018-12-21T06:15:19.506Z,100549.22
2018-12-21T06:17:47.129Z,100549.77
2018-12-21T06:20:14.701Z,100548.42
2018-12-21T06:22:42.298Z,100534.42
2018-12-21T06:25:09.851Z,100540.11
2018-12-21T06:27:37.455Z,100534.06
2018-12-21T06:30:05.861Z,100530.17
2018-12-21T06:32:33.424Z,100514.47
2018-12-21T06:35:01.007Z,100517.69
2018-12-21T06:37:28.666Z,100517.13
2018-12-21T06:39:56.248Z,100508.42
2018-12-21T06:42:23.898Z,100504.53
2018-12-21T06:44:51.696Z,100500.56
2018-12-21T06:47:19.266Z,100495.27
2018-12-21T06:49:46.854Z,100489.47
2018-12-21T06:52:14.428Z,100478.11
2018-12-21T06:54:42.019Z,100490.19
2018-12-21T06:57:09.657Z,100491.90
2018-12-21T06:59:37.363Z,100488.44
2018-12-21T07:02:05.168Z,100485.45
2018-12-21T07:04:32.947Z,100482.47
2018-12-21T07:07:00.698Z,100480.25
2018-12-21T07:09:28.313Z,100477.27
2018-12-21T07:11:55.910Z,100472.06
2018-12-21T07:14:23.972Z,100462.33
2018-12-21T07:16:51.628Z,100461.73
2018-12-21T07:19:20.383Z,100449.05
2018-12-21T07:21:48.068Z,100455.48
2018-12-21T07:24:15.787Z,100452.55
2018-12-21T07:26:43.443Z,100448.77
2018-12-21T07:29:10.971Z,100453.50
2018-12-21T07:31:38.532Z,100442.92
2018-12-21T07:34:06.318Z,100438.55
2018-12-21T07:36:33.944Z,100437.28
2018-12-21T07:39:01.544Z,100430.41
2018-12-21T07:41:29.181Z,100424.80
2018-12-21T07:43:56.757Z,100414.39
2018-12-21T07:46:24.348Z,100418.33
2018-12-21T07:48:52.060Z,100416.53
2018-12-21T07:51:19.778Z,100410.06
2018-12-21T07:53:47.363Z,100407.09
2018-12-21T07:56:14.982Z,100407.44
2018-12-21T07:58:42.542Z,100393.41
2018-12-21T08:01:10.072Z,100399.97
2018-12-21T08:03:37.679Z,100387.77
2018-12-21T08:06:05.294Z,100382.05
2018-12-21T08:08:32.893Z,100385.54
2018-12-21T08:11:00.499Z,100382.00
2018-12-21T08:13:28.087Z,100380.25
2018-12-21T08:15:55.689Z,100372.42
2018-12-21T08:18:23.351Z,100376.36
2018-12-21T08:20:50.945Z,100365.08
2018-12-21T08:23:18.549Z,100361.58
2018-12-21T08:25:46.152Z,100353.75
2018-12-21T08:28:13.766Z,100351.61
2018-12-21T08:30:41.406Z,100350.22
2018-12-21T08:33:09.028Z,100345.92
2018-12-21T08:35:36.592Z,100334.04
2018-12-21T08:38:04.161Z,100329.66
2018-12-21T08:40:31.728Z,100326.26
2018-12-21T08:42:59.419Z,100319.66
2018-12-21T08:45:27.002Z,100312.75
2018-12-21T08:47:54.596Z,100312.27
2018-12-21T08:50:22.303Z,100315.68
2018-12-21T08:52:49.884Z,100304.01
2018-12-21T08:55:17.453Z,100304.84
2018-12-21T08:57:45.039Z,100296.05
2018-12-21T09:00:12.749Z,100286.88
2018-12-21T09:02:40.343Z,100282.50
2018-12-21T09:05:08.586Z,100275.07
2018-12-21T09:07:37.207Z,100274.23
2018-12-21T09:10:07.099Z,100261.56
2018-12-21T09:12:34.731Z,100255.40
2018-12-21T09:15:02.354Z,100252.20
2018-12-21T09:17:30.021Z,100249.59
2018-12-21T09:19:57.606Z,100243.11
2018-12-21T09:22:25.249Z,100248.23
2018-12-21T09:24:52.843Z,100239.05
2018-12-21T09:27:20.402Z,100231.61
2018-12-21T09:29:48.020Z,100228.55
2018-12-21T09:32:15.650Z,100219.38
2018-12-21T09:34:43.221Z,100211.94
2018-12-21T09:37:10.871Z,100205.82
2018-12-21T09:39:38.602Z,100206.27
2018-12-21T09:42:06.195Z,100196.69
2018-12-21T09:44:33.873Z,100194.59
2018-12-21T09:47:01.432Z,100190.13
2018-12-21T09:49:29.068Z,100177.45
2018-12-21T09:51:56.715Z,100176.58
2018-12-21T09:54:24.353Z,100175.27
2018-12-21T09:56:51.925Z,100164.30
2018-12-21T09:59:19.488Z,100163.46
2018-12-21T10:01:47.279Z,100160.88
2018-12-21T10:04:14.808Z,100155.69
2018-12-21T10:06:42.360Z,100146.55
2018-12-21T10:09:09.967Z,100134.80
2018-12-21T10:11:37.576Z,100127.70
2018-12-21T10:14:05.189Z,100127.28
2018-12-21T10:16:32.776Z,100116.49
2018-12-21T10:19:00.518Z,100105.16
2018-12-21T10:21:28.108Z,100089.34
2018-12-21T10:23:55.687Z,100079.68
2018-12-21T10:26:23.315Z,100073.59
2018-12-21T10:28:50.884Z,100071.81
2018-12-21T10:31:18.480Z,100065.25
2018-12-21T10:33:46.083Z,100060.69
2018-12-21T10:36:13.720Z,100051.02
2018-12-21T10:38:41.364Z,100048.78
2018-12-21T10:41:08.948Z,100042.76
2018-12-21T10:43:36.535Z,100030.95
2018-12-21T10:46:04.186Z,100031.45
2018-12-21T10:48:31.804Z,100023.97
2018-12-21T10:50:59.407Z,100014.80
2018-12-21T10:53:27.075Z,99996.05
2018-12-21T10:55:54.796Z,99997.74
2018-12-21T10:58:22.373Z,99976.71
2018-12-21T11:00:50.104Z,99971.80
2018-12-21T11:03:17.670Z,99957.52
2018-12-21T11:05:45.250Z,99950.59
2018-12-21T11:08:12.868Z,99933.55
2018-12-21T11:10:40.435Z,99930.14
2018-12-21T11:13:08.063Z,99925.23
2018-12-21T11:15:35.773Z,99910.30
2018-12-21T11:18:03.356Z,99912.93
2018-12-21T11:20:30.979Z,99905.11
2018-12-21T11:22:58.577Z,99901.23
2018-12-21T11:25:26.124Z,99899.00
2018-12-21T11:27:53.746Z,99885.61
2018-12-21T11:30:21.364Z,99877.74
2018-12-21T11:32:49.125Z,99858.02
2018-12-21T11:35:16.695Z,99856.70
2018-12-21T11:37:44.248Z,99858.35
2018-12-21T11:40:11.876Z,99846.16
2018-12-21T11:42:39.491Z,99837.37
2018-12-21T11:45:08.848Z,99834.69
2018-12-21T11:47:36.436Z,99828.47
2018-12-21T11:50:05.205Z,99828.91
2018-12-21T11:52:32.807Z,99815.80
2018-12-21T11:55:00.427Z,99809.78
2018-12-21T11:57:28.151Z,99805.52
2018-12-21T11:59:55.756Z,99804.20
2018-12-21T12:02:23.328Z,99797.75
2018-12-21T12:04:50.936Z,99789.11
2018-12-21T12:07:18.521Z,99781.63
2018-12-21T12:09:46.106Z,99776.39
2018-12-21T12:12:13.728Z,99768.14
2018-12-21T12:14:41.606Z,99765.45
2018-12-21T12:17:09.199Z,99751.09
2018-12-21T12:19:36.770Z,99747.98
2018-12-21T12:22:04.387Z,99744.53
2018-12-21T12:24:31.953Z,99734.76
2018-12-21T12:26:59.648Z,99724.81
2018-12-21T12:29:27.229Z,99730.94
2018-12-21T12:31:54.807Z,99723.02
2018-12-21T12:34:22.447Z,99716.58
2018-12-21T12:36:50.029Z,99706.09
2018-12-21T12:39:17.572Z,99699.09
2018-12-21T12:41:45.271Z,99697.72
2018-12-21T12:44:12.823Z,99695.42
2018-12-21T12:46:40.422Z,99685.80
2018-12-21T12:49:08.061Z,99678.83
2018-12-21T12:51:35.701Z,99678.38
2018-12-21T12:54:03.275Z,99677.94
2018-12-21T12:56:30.878Z,99662.38
2018-12-21T12:58:59.906Z,99652.88
2018-12-21T13:01:27.591Z,99648.50
2018-12-21T13:03:55.180Z,99639.70
2018-12-21T13:06:22.761Z,99635.77
2018-12-21T13:08:50.382Z,99632.28
2018-12-21T13:11:18.000Z,99623.91
2018-12-21T13:13:45.598Z,99610.20
2018-12-21T13:16:13.214Z,99599.33
2018-12-21T13:18:40.806Z,99596.31
2018-12-21T13:21:08.400Z,99592.89
2018-12-21T13:23:36.042Z,99590.33
2018-12-21T13:26:03.623Z,99584.70
2018-12-21T13:28:31.251Z,99586.40
2018-12-21T13:30:58.840Z,99575.91
2018-12-21T13:33:26.377Z,99567.05
2018-12-21T13:35:54.999Z,99559.19
2018-12-21T13:38:22.643Z,99544.83
2018-12-21T13:40:50.226Z,99540.89
2018-12-21T13:43:17.937Z,99528.59
2018-12-21T13:46:49.611Z,99518.55
2018-12-21T13:49:17.354Z,99512.18
2018-12-21T13:51:44.947Z,99512.05
2018-12-21T13:54:12.633Z,99499.77
2018-12-21T13:56:40.246Z,99492.32
2018-12-21T13:59:07.823Z,99492.22
2018-12-21T14:01:35.440Z,99489.59
2018-12-21T14:04:03.031Z,99484.90
2018-12-21T14:06:30.579Z,99482.28
2018-12-21T14:08:58.194Z,99487.97
2018-12-21T14:11:25.794Z,99478.47
2018-12-21T14:13:53.517Z,99471.53
2018-12-21T14:16:21.109Z,99472.33
2018-12-21T14:18:48.693Z,99468.41
2018-12-21T14:21:16.314Z,99471.85
2018-12-21T14:23:43.891Z,99464.05
2018-12-21T14:26:11.480Z,99462.73
2018-12-21T14:28:39.104Z,99461.84
2018-12-21T14:31:07.527Z,99449.11
2018-12-21T14:33:35.247Z,99445.18
2018-12-21T14:36:02.840Z,99446.11
2018-12-21T14:38:30.409Z,99448.73
2018-12-21T14:40:58.017Z,99440.45
2018-12-21T14:43:25.695Z,99442.63
2018-12-21T14:45:53.260Z,99438.30
2018-12-21T14:48:20.827Z,99438.30
2018-12-21T14:50:48.404Z,99422.95
2018-12-21T14:53:15.979Z,99423.89
2018-12-21T14:55:43.740Z,99428.20
2018-12-21T14:58:11.300Z,99423.66
2018-12-21T15:00:38.865Z,99417.16
2018-12-21T15:03:06.469Z,99412.78
2018-12-21T15:05:34.048Z,99410.29
2018-12-21T15:08:01.672Z,99411.53
2018-12-21T15:10:29.247Z,99405.46
2018-12-21T15:12:56.963Z,99403.80
2018-12-21T15:15:24.576Z,99397.25
2018-12-21T15:17:52.184Z,99387.69
2018-12-21T15:20:19.941Z,99388.23
2018-12-21T15:22:47.550Z,99383.92
2018-12-21T15:25:15.167Z,99379.26
2018-12-21T15:27:42.744Z,99380.56
2018-12-21T15:30:11.162Z,99377.50
2018-12-21T15:32:38.731Z,99370.33
2018-12-21T15:35:06.420Z,99373.02
2018-12-21T15:37:34.176Z,99363.91
2018-12-21T15:40:01.766Z,99368.77
2018-12-21T15:42:29.351Z,99369.25
2018-12-21T15:44:56.931Z,99363.08
2018-12-21T15:47:24.683Z,99362.59
2018-12-21T15:49:52.284Z,99364.84
2018-12-21T15:52:19.864Z,99355.66
2018-12-21T15:54:47.499Z,99353.84
2018-12-21T15:57:15.051Z,99356.70
2018-12-21T15:59:42.790Z,99359.33
2018-12-21T16:02:10.364Z,99357.59
2018-12-21T16:04:44.610Z,99353.22
2018-12-21T16:07:12.380Z,99351.97
2018-12-21T16:09:39.997Z,99344.11
2018-12-21T16:12:07.586Z,99333.10
2018-12-21T16:14:36.693Z,99335.11
2018-12-21T16:17:04.398Z,99333.48
2018-12-21T16:19:32.003Z,99328.62
2018-12-21T16:21:59.598Z,99322.61
2018-12-21T16:24:27.165Z,99325.06
2018-12-21T16:26:54.785Z,99327.31
2018-12-21T16:29:22.387Z,99333.86
2018-12-21T16:31:50.094Z,99316.38
2018-12-21T16:34:17.693Z,99328.62
2018-12-21T16:36:45.262Z,99324.55
2018-12-21T16:39:12.861Z,99321.92
2018-12-21T16:41:40.475Z,99318.38
2018-12-21T16:44:08.134Z,99313.89
2018-12-21T16:46:35.727Z,99313.51
2018-12-21T16:49:03.305Z,99310.81
2018-12-21T16:51:30.965Z,99307.88
2018-12-21T16:53:58.595Z,99307.27
2018-12-21T16:56:26.119Z,99297.77
2018-12-21T16:58:53.752Z,99299.84
2018-12-21T17:01:21.481Z,99297.70
2018-12-21T17:03:49.073Z,99294.22
2018-12-21T17:06:16.713Z,99299.02
2018-12-21T17:08:44.330Z,99292.46
2018-12-21T17:11:11.925Z,99289.84
2018-12-21T17:13:39.601Z,99294.91
2018-12-21T17:16:07.206Z,99294.46
2018-12-21T17:18:34.812Z,99296.77
2018-12-21T17:21:02.461Z,99297.60
2018-12-21T17:23:30.110Z,99296.77
2018-12-21T17:25:57.730Z,99296.70
2018-12-21T17:28:25.379Z,99296.77
2018-12-21T17:30:52.979Z,99295.84
2018-12-21T17:33:20.578Z,99297.08
2018-12-21T17:35:48.194Z,99288.77
2018-12-21T17:38:15.845Z,99288.77
2018-12-21T17:40:43.612Z,99290.59
2018-12-21T17:43:11.241Z,99291.84
2018-12-21T17:45:38.831Z,99291.77
2018-12-21T17:48:06.687Z,99293.45
2018-12-21T17:50:34.293Z,99294.32
2018-12-21T17:53:01.911Z,99296.08
2018-12-21T17:55:29.616Z,99303.50
2018-12-21T17:57:57.200Z,99305.27
2018-12-21T18:00:24.955Z,99304.88
2018-12-21T18:02:54.763Z,99316.20
2018-12-21T18:05:23.412Z,99313.20
2018-12-21T18:07:51.561Z,99312.81
2018-12-21T18:10:19.176Z,99318.52
2018-12-21T18:12:46.759Z,99312.50
2018-12-21T18:15:14.352Z,99317.44
2018-12-21T18:17:42.000Z,99323.13
2018-12-21T18:20:11.459Z,99319.75
2018-12-21T18:22:39.139Z,99327.20
2018-12-21T18:25:13.087Z,99324.99
2018-12-21T18:27:41.326Z,99334.55
2018-12-21T18:30:16.011Z,99330.55
2018-12-21T18:32:43.694Z,99327.61
2018-12-21T18:35:14.327Z,99334.69
2018-12-21T18:37:49.759Z,99336.86
2018-12-21T18:40:17.351Z,99327.20
2018-12-21T18:42:44.984Z,99316.81
2018-12-21T18:45:12.605Z,99330.30
2018-12-21T18:47:40.220Z,99314.26
2018-12-21T18:50:08.673Z,99315.57
2018-12-21T18:52:36.613Z,99325.06
2018-12-21T18:55:12.337Z,99323.27
2018-12-21T18:57:39.963Z,99337.30
2018-12-21T19:00:11.664Z,99329.98
2018-12-21T19:02:39.251Z,99320.81
2018-12-21T19:05:06.931Z,99330.50
2018-12-21T19:07:34.663Z,99335.44
2018-12-21T19:10:03.936Z,99334.51
2018-12-21T19:12:31.766Z,99321.40
2018-12-21T19:14:59.458Z,99331.81
2018-12-21T19:17:27.055Z,99334.51
2018-12-21T19:19:54.634Z,99333.67
2018-12-21T19:22:22.226Z,99346.78
2018-12-21T19:24:49.813Z,99348.61
2018-12-21T19:27:17.499Z,99349.16
2018-12-21T19:29:45.055Z,99356.70
2018-12-21T19:32:12.787Z,99364.50
2018-12-21T19:34:40.535Z,99360.95
2018-12-21T19:37:08.143Z,99373.20
2018-12-21T19:39:35.738Z,99374.58
2018-12-21T19:42:03.523Z,99374.19
2018-12-21T19:44:31.055Z,99379.98
2018-12-21T19:46:58.664Z,99378.74
2018-12-21T19:49:26.420Z,99381.36
2018-12-21T19:51:54.007Z,99385.91
2018-12-21T19:54:22.726Z,99395.59
2018-12-21T19:57:09.587Z,99389.03
2018-12-21T19:59:37.203Z,99397.89
2018-12-21T20:02:05.209Z,99399.27
2018-12-21T20:04:32.956Z,99406.14
2018-12-21T20:07:00.571Z,99422.80
2018-12-21T20:09:28.156Z,99412.91
2018-12-21T20:11:55.789Z,99428.32
2018-12-21T20:14:23.343Z,99427.08
2018-12-21T20:16:51.057Z,99429.76
2018-12-21T20:19:18.674Z,99432.77
2018-12-21T20:21:46.266Z,99446.73
2018-12-21T20:24:13.907Z,99443.38
2018-12-21T20:26:45.016Z,99451.77
2018-12-21T20:29:12.593Z,99459.31
2018-12-21T20:31:40.248Z,99466.66
2018-12-21T20:34:07.885Z,99474.89
2018-12-21T20:36:35.453Z,99479.75
2018-12-21T20:39:06.796Z,99490.03
2018-12-21T20:41:34.401Z,99510.19
2018-12-21T20:44:02.037Z,99511.55
2018-12-21T20:46:29.625Z,99522.09
2018-12-21T20:48:57.247Z,99524.00
2018-12-21T20:51:24.818Z,99537.09
2018-12-21T20:53:52.420Z,99550.70
2018-12-21T20:56:20.005Z,99561.77
2018-12-21T20:58:52.484Z,99551.73
2018-12-21T21:01:20.201Z,99568.38
2018-12-21T21:03:47.818Z,99578.13
2018-12-21T21:06:15.381Z,99582.12
2018-12-21T21:08:43.022Z,99600.06
2018-12-21T21:11:10.631Z,99595.75
2018-12-21T21:13:38.262Z,99615.89
2018-12-21T21:16:05.931Z,99628.59
2018-12-21T21:18:33.502Z,99634.28
2018-12-21T21:21:02.053Z,99643.72
2018-12-21T21:23:29.669Z,99652.50
2018-12-21T21:25:57.272Z,99660.85
2018-12-21T21:28:25.020Z,99667.02
2018-12-21T21:30:52.644Z,99676.52
2018-12-21T21:33:20.245Z,99690.86
2018-12-21T21:35:47.902Z,99691.67
2018-12-21T21:38:15.485Z,99700.41
2018-12-21T21:40:43.064Z,99699.59
2018-12-21T21:43:13.160Z,99711.48
2018-12-21T21:45:40.751Z,99725.30
2018-12-21T21:48:08.341Z,99725.72
2018-12-21T21:50:35.943Z,99743.58
2018-12-21T21:53:03.577Z,99741.34
2018-12-21T21:55:31.191Z,99750.18
2018-12-21T21:57:58.765Z,99749.79
2018-12-21T22:00:26.392Z,99755.08
2018-12-21T22:02:54.124Z,99767.29
2018-12-21T22:05:21.749Z,99779.13
2018-12-21T22:07:49.363Z,99774.39
2018-12-21T22:10:16.942Z,99781.46
2018-12-21T22:12:44.580Z,99792.22
2018-12-21T22:15:12.197Z,99798.34
2018-12-21T22:17:39.794Z,99810.13
2018-12-21T22:20:09.964Z,99814.64
2018-12-21T22:22:37.508Z,99809.45
2018-12-21T22:25:05.128Z,99820.40
2018-12-21T22:27:32.761Z,99829.43
2018-12-21T22:30:00.344Z,99841.22
2018-12-21T22:32:27.982Z,99844.31
2018-12-21T22:34:55.606Z,99858.38
2018-12-21T22:37:23.221Z,99868.84
2018-12-21T22:39:50.821Z,99875.79
2018-12-21T22:42:18.441Z,99880.16
2018-12-21T22:44:46.001Z,99895.08
2018-12-21T22:47:13.609Z,99888.06
2018-12-21T22:49:41.239Z,99900.27
2018-12-21T22:52:08.933Z,99913.81
2018-12-21T22:54:36.513Z,99919.96
2018-12-21T22:57:04.130Z,99917.78
2018-12-21T22:59:31.868Z,99920.70
2018-12-21T23:01:59.486Z,99940.34
2018-12-21T23:04:27.074Z,99929.42
2018-12-21T23:06:54.791Z,99949.06
2018-12-21T23:09:22.384Z,99949.46
2018-12-21T23:11:50.012Z,99959.15
2018-12-21T23:14:17.633Z,99953.61
2018-12-21T23:16:45.225Z,99964.44
2018-12-21T23:19:12.798Z,99958.33
2018-12-21T23:21:40.431Z,99962.83
2018-12-21T23:24:08.035Z,99968.89
2018-12-21T23:26:35.749Z,99965.05
2018-12-21T23:29:03.503Z,99969.77
2018-12-21T23:31:31.118Z,99978.48
2018-12-21T23:33:58.720Z,99979.33
2018-12-21T23:36:26.456Z,99988.62
2018-12-21T23:38:54.042Z,99993.03
2018-12-21T23:41:21.625Z,99992.55
2018-12-21T23:43:49.268Z,99993.95
2018-12-21T23:46:16.953Z,100001.28
2018-12-21T23:48:44.563Z,100009.66
2018-12-21T23:51:12.198Z,100001.89
2018-12-21T23:53:39.811Z,100019.31
2018-12-21T23:56:11.889Z,100020.57
2018-12-21T23:58:37.056Z,100030.61
